createdAt,value
2018-06-19T00:00:53.693Z,17.89
2018-06-19T00:05:50.407Z,17.84
2018-06-19T00:10:47.212Z,17.93
2018-06-19T00:15:43.948Z,18.00
2018-06-19T00:20:40.806Z,17.85
2018-06-19T00:25:37.637Z,17.76
2018-06-19T00:30:34.436Z,17.83
2018-06-19T00:35:31.154Z,17.76
2018-06-19T00:40:27.943Z,17.56
2018-06-19T00:45:24.732Z,17.55
2018-06-19T00:50:21.482Z,17.38
2018-06-19T00:55:18.190Z,17.32
2018-06-19T01:00:14.966Z,17.23
2018-06-19T01:05:11.598Z,17.22
2018-06-19T01:10:08.365Z,17.22
2018-06-19T01:15:05.217Z,17.14
2018-06-19T01:20:02.221Z,17.14
2018-06-19T01:24:58.881Z,16.98
2018-06-19T01:29:55.655Z,16.99
2018-06-19T01:34:52.383Z,16.90
2018-06-19T01:39:49.103Z,16.87
2018-06-19T01:44:45.781Z,16.86
2018-06-19T01:49:42.541Z,16.79
2018-06-19T01:54:39.254Z,16.84
2018-06-19T01:59:36.007Z,16.90
2018-06-19T02:04:32.701Z,16.85
2018-06-19T02:09:29.434Z,16.85
2018-06-19T02:14:26.272Z,16.85
2018-06-19T02:19:23.029Z,16.92
2018-06-19T02:24:19.765Z,16.97
2018-06-19T02:29:16.498Z,17.12
2018-06-19T02:34:13.134Z,17.18
2018-06-19T02:39:12.747Z,17.36
2018-06-19T02:44:09.810Z,17.26
2018-06-19T02:49:06.506Z,17.36
2018-06-19T02:54:03.401Z,17.21
2018-06-19T02:59:00.229Z,17.15
2018-06-19T03:03:57.355Z,17.22
2018-06-19T03:08:54.131Z,17.03
2018-06-19T03:13:50.973Z,16.91
2018-06-19T03:18:47.710Z,16.95
2018-06-19T03:23:44.523Z,16.88
2018-06-19T03:28:41.182Z,16.87
2018-06-19T03:33:37.977Z,16.87
2018-06-19T03:38:34.778Z,16.79
2018-06-19T03:43:31.503Z,16.68
2018-06-19T03:48:28.177Z,16.67
2018-06-19T03:53:24.903Z,16.67
2018-06-19T03:58:21.709Z,16.83
2018-06-19T04:03:18.884Z,16.92
2018-06-19T04:08:15.601Z,16.87
2018-06-19T04:13:12.312Z,16.92
2018-06-19T04:18:09.282Z,17.01
2018-06-19T04:23:06.231Z,17.19
2018-06-19T04:28:02.891Z,17.49
2018-06-19T04:32:58.892Z,17.98
2018-06-19T04:37:55.740Z,18.52
2018-06-19T04:42:52.579Z,20.13
2018-06-19T04:47:49.280Z,21.90
2018-06-19T04:52:46.012Z,22.90
2018-06-19T04:57:42.818Z,22.51
2018-06-19T05:02:40.004Z,21.34
2018-06-19T05:07:35.934Z,20.49
2018-06-19T05:12:32.708Z,19.94
2018-06-19T05:17:29.447Z,19.87
2018-06-19T05:22:26.210Z,19.70
2018-06-19T05:27:24.808Z,19.65
2018-06-19T05:32:21.768Z,20.79
2018-06-19T05:37:18.452Z,21.58
2018-06-19T05:42:15.149Z,22.07
2018-06-19T05:47:14.190Z,22.40
2018-06-19T05:52:10.895Z,22.30
2018-06-19T05:57:07.649Z,22.43
2018-06-19T06:02:04.525Z,22.32
2018-06-19T06:07:01.159Z,22.44
2018-06-19T06:11:57.832Z,22.81
2018-06-19T06:16:54.469Z,22.64
2018-06-19T06:21:51.415Z,22.89
2018-06-19T06:26:48.366Z,23.22
2018-06-19T06:31:45.106Z,23.08
2018-06-19T06:36:41.843Z,23.13
2018-06-19T06:41:45.163Z,23.23
2018-06-19T06:46:43.689Z,23.59
2018-06-19T06:51:40.249Z,24.04
2018-06-19T06:56:44.356Z,24.60
2018-06-19T07:01:43.937Z,25.60
2018-06-19T07:06:40.508Z,26.04
2018-06-19T07:11:37.479Z,26.01
2018-06-19T07:16:40.430Z,25.86
2018-06-19T07:21:47.187Z,25.74
2018-06-19T07:26:43.882Z,25.85
2018-06-19T07:31:40.262Z,25.08
2018-06-19T07:36:37.969Z,24.40
2018-06-19T07:41:34.772Z,24.78
2018-06-19T07:46:30.562Z,25.26
2018-06-19T07:51:26.373Z,25.95
2018-06-19T07:56:22.499Z,26.22
2018-06-19T08:01:18.566Z,26.52
2018-06-19T08:06:19.748Z,25.93
2018-06-19T08:11:16.246Z,26.27
2018-06-19T08:16:14.936Z,25.46
2018-06-19T08:21:11.864Z,24.98
2018-06-19T08:26:18.885Z,25.01
2018-06-19T08:31:14.569Z,26.00
2018-06-19T08:36:13.938Z,26.29
2018-06-19T08:41:18.825Z,26.69
2018-06-19T08:46:15.763Z,26.73
2018-06-19T08:51:10.982Z,27.20
2018-06-19T08:56:07.956Z,27.46
2018-06-19T09:01:05.888Z,27.62
2018-06-19T09:06:01.727Z,27.68
2018-06-19T09:10:57.504Z,27.60
2018-06-19T09:15:53.263Z,27.77
2018-06-19T09:20:48.782Z,27.80
2018-06-19T09:25:44.540Z,27.97
2018-06-19T09:30:52.458Z,28.31
2018-06-19T09:35:47.888Z,27.81
2018-06-19T09:40:43.360Z,27.70
2018-06-19T09:45:38.761Z,27.54
2018-06-19T09:50:34.204Z,27.31
2018-06-19T09:55:30.747Z,27.66
2018-06-19T10:00:34.586Z,27.56
2018-06-19T10:05:30.973Z,27.39
2018-06-19T10:10:26.282Z,27.80
2018-06-19T10:15:21.701Z,28.13
2018-06-19T10:20:16.935Z,28.21
2018-06-19T10:25:12.234Z,27.57
2018-06-19T10:30:07.984Z,27.78
2018-06-19T10:35:03.488Z,27.99
2018-06-19T10:39:58.817Z,26.31
2018-06-19T10:44:55.018Z,26.66
2018-06-19T10:49:50.070Z,26.25
2018-06-19T10:54:45.822Z,26.69
2018-06-19T10:59:40.959Z,26.88
2018-06-19T11:04:36.031Z,27.86
2018-06-19T11:09:31.265Z,27.08
2018-06-19T11:14:30.604Z,27.34
2018-06-19T11:19:26.244Z,26.81
2018-06-19T11:24:21.682Z,27.45
2018-06-19T11:29:17.159Z,27.88
2018-06-19T11:34:12.722Z,27.98
2018-06-19T11:39:14.407Z,27.83
2018-06-19T11:44:08.880Z,27.43
2018-06-19T11:49:03.482Z,28.32
2018-06-19T11:53:58.900Z,28.68
2018-06-19T11:58:54.186Z,28.93
2018-06-19T12:03:49.793Z,28.60
2018-06-19T12:08:48.910Z,28.36
2018-06-19T12:13:43.888Z,28.22
2018-06-19T12:18:41.265Z,28.18
2018-06-19T12:23:39.056Z,27.14
2018-06-19T12:28:35.058Z,26.94
2018-06-19T12:33:37.052Z,26.95
2018-06-19T12:38:33.566Z,27.27
2018-06-19T12:43:30.061Z,26.92
2018-06-19T12:48:30.157Z,27.28
2018-06-19T12:53:41.801Z,27.87
2018-06-19T12:58:36.217Z,28.15
2018-06-19T13:03:47.836Z,27.48
2018-06-19T13:08:43.945Z,27.56
2018-06-19T13:13:49.775Z,27.27
2018-06-19T13:19:01.459Z,27.18
2018-06-19T13:24:07.176Z,26.57
2018-06-19T13:29:54.911Z,27.45
2018-06-19T13:35:01.023Z,27.44
2018-06-19T13:41:23.837Z,27.61
2018-06-19T13:46:27.870Z,27.19
2018-06-19T13:51:31.393Z,27.08
2018-06-19T13:57:49.464Z,27.53
2018-06-19T14:02:56.591Z,27.16
2018-06-19T14:08:19.813Z,26.95
2018-06-19T14:13:26.232Z,27.11
2018-06-19T14:18:34.509Z,27.19
2018-06-19T14:23:40.646Z,27.06
2018-06-19T14:28:44.973Z,26.91
2018-06-19T14:33:48.557Z,27.12
2018-06-19T14:38:53.701Z,27.14
2018-06-19T14:43:59.924Z,27.15
2018-06-19T14:49:07.875Z,27.33
2018-06-19T14:54:13.480Z,27.03
2018-06-19T14:59:20.722Z,27.10
2018-06-19T15:04:24.748Z,27.19
2018-06-19T15:09:19.530Z,26.73
2018-06-19T15:14:13.981Z,26.62
2018-06-19T15:19:08.509Z,26.65
2018-06-19T15:24:07.024Z,27.01
2018-06-19T15:29:06.778Z,27.04
2018-06-19T15:34:01.906Z,27.45
2018-06-19T15:38:56.320Z,27.54
2018-06-19T15:43:50.744Z,27.41
2018-06-19T15:48:45.247Z,27.34
2018-06-19T15:53:39.810Z,27.20
2018-06-19T15:58:34.623Z,27.03
2018-06-19T16:03:29.066Z,27.24
2018-06-19T16:08:23.765Z,27.48
2018-06-19T16:13:18.484Z,27.48
2018-06-19T16:18:13.804Z,26.98
2018-06-19T16:23:08.436Z,27.31
2018-06-19T16:28:03.009Z,27.68
2018-06-19T16:32:57.689Z,27.63
2018-06-19T16:37:52.248Z,27.69
2018-06-19T16:42:46.701Z,27.75
2018-06-19T16:47:41.242Z,27.49
2018-06-19T16:52:35.762Z,27.51
2018-06-19T16:57:31.540Z,27.73
2018-06-19T17:02:25.984Z,27.66
2018-06-19T17:07:20.447Z,27.05
2018-06-19T17:12:14.897Z,27.33
2018-06-19T17:17:09.412Z,27.66
2018-06-19T17:22:04.985Z,27.62
2018-06-19T17:26:59.394Z,27.72
2018-06-19T17:31:53.964Z,27.51
2018-06-19T17:36:48.437Z,27.47
2018-06-19T17:41:42.893Z,27.48
2018-06-19T17:46:37.356Z,27.21
2018-06-19T17:51:31.780Z,27.15
2018-06-19T17:56:26.307Z,27.02
2018-06-19T18:01:20.757Z,26.84
2018-06-19T18:06:15.169Z,27.06
2018-06-19T18:11:09.628Z,27.18
2018-06-19T18:16:04.062Z,27.11
2018-06-19T18:20:58.519Z,27.17
2018-06-19T18:25:52.941Z,26.99
2018-06-19T18:30:47.689Z,27.04
2018-06-19T18:35:43.204Z,26.99
2018-06-19T18:40:37.629Z,26.96
2018-06-19T18:45:32.223Z,26.78
2018-06-19T18:50:26.665Z,28.46
2018-06-19T18:55:21.061Z,29.93
2018-06-19T19:00:15.537Z,30.07
2018-06-19T19:05:10.077Z,27.33
2018-06-19T19:10:10.521Z,27.07
2018-06-19T19:15:10.404Z,26.71
2018-06-19T19:20:04.896Z,26.21
2018-06-19T19:24:59.436Z,25.00
2018-06-19T19:29:53.940Z,24.29
2018-06-19T19:34:48.459Z,24.01
2018-06-19T19:39:42.928Z,23.72
2018-06-19T19:44:37.090Z,23.54
2018-06-19T19:49:31.508Z,23.44
2018-06-19T19:54:26.080Z,23.35
2018-06-19T19:59:20.574Z,23.24
2018-06-19T20:04:15.462Z,23.14
2018-06-19T20:09:10.453Z,23.04
2018-06-19T20:14:05.138Z,22.92
2018-06-19T20:18:59.567Z,22.76
2018-06-19T20:23:54.045Z,22.55
2018-06-19T20:28:48.454Z,22.41
2018-06-19T20:33:43.813Z,22.30
2018-06-19T20:38:38.280Z,22.18
2018-06-19T20:43:32.805Z,22.06
2018-06-19T20:48:27.290Z,21.98
2018-06-19T20:53:21.681Z,21.86
2018-06-19T20:58:16.376Z,21.75
2018-06-19T21:03:10.962Z,21.66
2018-06-19T21:08:05.924Z,21.60
2018-06-19T21:13:00.412Z,21.55
2018-06-19T21:17:54.856Z,21.42
2018-06-19T21:22:49.376Z,21.39
2018-06-19T21:27:43.781Z,21.32
2018-06-19T21:32:38.218Z,21.26
2018-06-19T21:37:32.621Z,21.21
2018-06-19T21:42:27.068Z,21.11
2018-06-19T21:47:21.728Z,20.98
2018-06-19T21:52:16.312Z,20.88
2018-06-19T21:57:10.881Z,20.83
2018-06-19T22:02:05.578Z,20.77
2018-06-19T22:07:00.050Z,20.81
2018-06-19T22:11:54.527Z,20.72
2018-06-19T22:16:48.942Z,20.67
2018-06-19T22:21:43.379Z,20.58
2018-06-19T22:26:37.810Z,20.57
2018-06-19T22:31:32.231Z,20.46
2018-06-19T22:36:26.937Z,20.32
2018-06-19T22:41:21.725Z,20.26
2018-06-19T22:46:16.167Z,20.23
2018-06-19T22:51:10.643Z,20.15
2018-06-19T22:56:05.157Z,20.07
2018-06-19T23:00:59.584Z,19.98
2018-06-19T23:05:54.005Z,20.05
2018-06-19T23:10:48.441Z,19.99
2018-06-19T23:15:42.829Z,19.90
2018-06-19T23:20:37.257Z,19.80
2018-06-19T23:25:31.661Z,19.73
2018-06-19T23:30:26.069Z,19.72
2018-06-19T23:35:20.488Z,19.71
2018-06-19T23:40:14.943Z,19.61
2018-06-19T23:45:09.359Z,19.49
2018-06-19T23:50:03.655Z,19.40
2018-06-19T23:54:58.090Z,19.32
2018-06-19T23:59:52.572Z,19.15
